createdAt,value
2023-04-25T00:00:38.924Z,5.50
2023-04-25T00:01:38.880Z,5.90
2023-04-25T00:02:38.921Z,5.40
2023-04-25T00:03:39.194Z,5.80
2023-04-25T00:04:39.337Z,5.40
2023-04-25T00:05:38.861Z,5.80
2023-04-25T00:06:38.795Z,6.10
2023-04-25T00:07:38.782Z,5.70
2023-04-25T00:08:38.819Z,5.00
2023-04-25T00:09:38.775Z,6.00
2023-04-25T00:10:38.759Z,5.70
2023-04-25T00:11:38.755Z,6.10
2023-04-25T00:12:38.740Z,6.00
2023-04-25T00:13:38.713Z,5.70
2023-04-25T00:14:38.711Z,6.60
2023-04-25T00:15:38.729Z,6.00
2023-04-25T00:16:38.836Z,5.60
2023-04-25T00:17:38.748Z,5.70
2023-04-25T00:18:38.663Z,5.80
2023-04-25T00:19:38.742Z,6.80
2023-04-25T00:20:38.627Z,6.00
2023-04-25T00:21:38.643Z,5.50
2023-04-25T00:22:38.584Z,5.50
2023-04-25T00:23:38.576Z,6.30
2023-04-25T00:24:38.581Z,5.10
2023-04-25T00:25:38.579Z,4.90
2023-04-25T00:26:38.595Z,5.20
2023-04-25T00:27:38.520Z,5.00
2023-04-25T00:28:38.558Z,5.40
2023-04-25T00:29:38.560Z,5.40
2023-04-25T00:30:38.559Z,5.60
2023-04-25T00:31:38.561Z,6.20
2023-04-25T00:32:38.475Z,6.40
2023-04-25T00:33:38.430Z,5.80
2023-04-25T00:34:38.432Z,6.30
2023-04-25T00:35:38.474Z,6.20
2023-04-25T00:36:38.435Z,6.10
2023-04-25T00:37:38.397Z,6.60
2023-04-25T00:38:38.398Z,6.20
2023-04-25T00:39:38.355Z,6.00
2023-04-25T00:40:38.350Z,6.40
2023-04-25T00:41:38.366Z,6.10
2023-04-25T00:42:38.374Z,5.20
2023-04-25T00:43:38.326Z,5.40
2023-04-25T00:44:38.302Z,5.30
2023-04-25T00:45:38.286Z,5.30
2023-04-25T00:46:38.341Z,5.70
2023-04-25T00:47:38.414Z,6.30
2023-04-25T00:48:38.321Z,5.80
2023-04-25T00:49:38.286Z,5.80
2023-04-25T00:50:38.236Z,5.50
2023-04-25T00:51:38.223Z,6.50
2023-04-25T00:52:38.253Z,5.70
2023-04-25T00:53:38.252Z,5.60
2023-04-25T00:54:38.201Z,6.50
2023-04-25T00:55:38.149Z,5.90
2023-04-25T00:56:38.144Z,5.40
2023-04-25T00:57:38.127Z,6.30
2023-04-25T00:58:38.129Z,5.60
2023-04-25T00:59:38.154Z,5.80
2023-04-25T01:00:38.114Z,6.10
2023-04-25T01:01:38.079Z,5.80
2023-04-25T01:02:38.219Z,5.80
2023-04-25T01:03:38.277Z,6.20
2023-04-25T01:04:38.042Z,5.80
2023-04-25T01:05:38.030Z,5.80
2023-04-25T01:06:38.020Z,5.60
2023-04-25T01:07:38.001Z,5.50
2023-04-25T01:08:38.015Z,6.20
2023-04-25T01:09:37.983Z,5.70
2023-04-25T01:10:37.944Z,5.60
2023-04-25T01:11:37.939Z,5.80
2023-04-25T01:12:37.937Z,5.50
2023-04-25T01:13:37.942Z,5.90
2023-04-25T01:14:37.934Z,5.80
2023-04-25T01:15:37.904Z,5.70
2023-04-25T01:16:37.906Z,6.10
2023-04-25T01:17:37.925Z,5.60
2023-04-25T01:18:37.876Z,5.10
2023-04-25T01:19:37.834Z,5.70
2023-04-25T01:20:37.911Z,5.20
2023-04-25T01:21:37.816Z,5.70
2023-04-25T01:22:37.833Z,5.80
2023-04-25T01:23:37.777Z,5.30
2023-04-25T01:24:37.773Z,4.90
2023-04-25T01:25:37.749Z,5.90
2023-04-25T01:26:37.776Z,5.70
2023-04-25T01:27:37.744Z,5.60
2023-04-25T01:28:37.722Z,6.00
2023-04-25T01:29:37.725Z,5.50
2023-04-25T01:30:37.682Z,5.70
2023-04-25T01:31:37.716Z,5.70
2023-04-25T01:32:37.739Z,5.30
2023-04-25T01:33:37.670Z,5.90
2023-04-25T01:34:37.628Z,5.80
2023-04-25T01:35:37.628Z,5.60
2023-04-25T01:36:37.640Z,6.50
2023-04-25T01:37:37.629Z,6.30
2023-04-25T01:38:37.618Z,6.40
2023-04-25T01:39:37.580Z,6.20
2023-04-25T01:40:37.557Z,6.30
2023-04-25T01:41:37.546Z,5.00
2023-04-25T01:42:37.569Z,6.10
2023-04-25T01:43:37.535Z,5.30
2023-04-25T01:44:37.525Z,5.10
2023-04-25T01:45:37.513Z,7.00
2023-04-25T01:46:37.516Z,5.30
2023-04-25T01:47:37.494Z,5.00
2023-04-25T01:48:37.488Z,5.50
2023-04-25T01:49:37.489Z,5.40
2023-04-25T01:50:37.466Z,5.50
2023-04-25T01:51:37.414Z,5.60
2023-04-25T01:52:37.458Z,5.00
2023-04-25T01:53:37.413Z,5.60
2023-04-25T01:54:37.460Z,5.80
2023-04-25T01:55:37.396Z,5.20
2023-04-25T01:56:37.347Z,5.60
2023-04-25T01:57:37.345Z,5.90
2023-04-25T01:58:37.346Z,5.30
2023-04-25T01:59:37.341Z,6.00
2023-04-25T02:00:37.301Z,5.30
2023-04-25T02:01:37.302Z,5.60
2023-04-25T02:02:37.445Z,5.70
2023-04-25T02:03:37.382Z,5.80
2023-04-25T02:04:37.381Z,6.10
2023-04-25T02:05:37.237Z,6.20
2023-04-25T02:06:37.225Z,5.20
2023-04-25T02:07:37.196Z,5.70
2023-04-25T02:08:37.180Z,5.50
2023-04-25T02:09:37.216Z,5.70
2023-04-25T02:10:37.169Z,6.00
2023-04-25T02:11:37.158Z,5.50
2023-04-25T02:12:37.143Z,5.50
2023-04-25T02:13:37.142Z,5.60
2023-04-25T02:14:37.154Z,5.30
2023-04-25T02:15:37.158Z,5.30
2023-04-25T02:16:37.208Z,5.70
2023-04-25T02:17:37.219Z,5.90
2023-04-25T02:18:37.114Z,5.30
2023-04-25T02:19:37.054Z,5.70
2023-04-25T02:20:37.062Z,5.40
2023-04-25T02:21:37.026Z,5.00
2023-04-25T02:22:37.065Z,5.50
2023-04-25T02:23:36.990Z,5.40
2023-04-25T02:24:36.985Z,5.60
2023-04-25T02:25:36.978Z,5.60
2023-04-25T02:26:36.996Z,5.50
2023-04-25T02:27:36.962Z,6.00
2023-04-25T02:28:36.927Z,5.80
2023-04-25T02:29:36.948Z,5.30
2023-04-25T02:30:36.946Z,6.10
2023-04-25T02:31:36.898Z,5.90
2023-04-25T02:32:36.912Z,6.30
2023-04-25T02:33:36.854Z,6.30
2023-04-25T02:34:36.896Z,5.40
2023-04-25T02:35:36.830Z,5.30
2023-04-25T02:36:36.819Z,5.90
2023-04-25T02:37:36.818Z,5.90
2023-04-25T02:38:36.791Z,5.80
2023-04-25T02:39:36.815Z,5.60
2023-04-25T02:40:36.782Z,5.30
2023-04-25T02:41:36.782Z,5.10
2023-04-25T02:42:36.741Z,6.00
2023-04-25T02:43:36.775Z,5.50
2023-04-25T02:44:36.773Z,6.00
2023-04-25T02:45:36.720Z,5.50
2023-04-25T02:46:39.278Z,5.60
2023-04-25T02:47:36.713Z,6.20
2023-04-25T02:48:36.670Z,5.30
2023-04-25T02:49:36.669Z,5.00
2023-04-25T02:50:36.695Z,5.30
2023-04-25T02:51:36.640Z,5.00
2023-04-25T02:52:36.649Z,4.50
2023-04-25T02:53:36.648Z,5.00
2023-04-25T02:54:36.591Z,5.10
2023-04-25T02:55:36.599Z,8.70
2023-04-25T02:56:36.576Z,6.00
2023-04-25T02:57:36.574Z,6.40
2023-04-25T02:58:36.541Z,7.10
2023-04-25T02:59:36.538Z,6.90
2023-04-25T03:00:36.569Z,5.60
2023-04-25T03:01:36.505Z,5.90
2023-04-25T03:02:36.589Z,6.20
2023-04-25T03:03:36.508Z,6.20
2023-04-25T03:04:36.525Z,5.40
2023-04-25T03:05:36.448Z,6.10
2023-04-25T03:06:36.442Z,5.40
2023-04-25T03:07:36.436Z,6.80
2023-04-25T03:08:36.401Z,5.70
2023-04-25T03:09:36.395Z,5.50
2023-04-25T03:10:36.396Z,6.00
2023-04-25T03:11:36.375Z,5.30
2023-04-25T03:12:36.383Z,4.70
2023-04-25T03:13:36.345Z,5.40
2023-04-25T03:14:36.337Z,5.50
2023-04-25T03:15:36.308Z,5.00
2023-04-25T03:16:36.324Z,5.70
2023-04-25T03:17:36.312Z,5.00
2023-04-25T03:18:36.313Z,4.90
2023-04-25T03:19:36.260Z,5.50
2023-04-25T03:20:36.250Z,5.00
2023-04-25T03:21:36.277Z,4.70
2023-04-25T03:22:36.223Z,5.40
2023-04-25T03:23:36.225Z,6.00
2023-04-25T03:24:36.199Z,5.30
2023-04-25T03:25:36.184Z,5.80
2023-04-25T03:26:36.162Z,5.20
2023-04-25T03:27:36.170Z,5.50
2023-04-25T03:28:36.161Z,5.70
2023-04-25T03:29:36.130Z,5.40
2023-04-25T03:30:36.220Z,5.30
2023-04-25T03:31:36.115Z,5.60
2023-04-25T03:32:36.106Z,5.20
2023-04-25T03:33:36.115Z,5.70
2023-04-25T03:34:36.051Z,5.60
2023-04-25T03:35:36.088Z,5.50
2023-04-25T03:36:36.036Z,5.60
2023-04-25T03:37:36.017Z,5.50
2023-04-25T03:38:36.099Z,5.30
2023-04-25T03:39:35.997Z,5.80
2023-04-25T03:40:35.992Z,5.90
2023-04-25T03:41:35.975Z,7.80
2023-04-25T03:42:35.953Z,6.70
2023-04-25T03:43:35.969Z,5.70
2023-04-25T03:44:35.967Z,5.10
2023-04-25T03:45:35.944Z,5.90
2023-04-25T03:46:35.897Z,5.80
2023-04-25T03:47:35.944Z,5.20
2023-04-25T03:48:35.898Z,5.70
2023-04-25T03:49:35.900Z,5.50
2023-04-25T03:50:35.868Z,5.20
2023-04-25T03:51:35.835Z,5.90
2023-04-25T03:52:35.835Z,5.80
2023-04-25T03:53:35.811Z,6.10
2023-04-25T03:54:35.822Z,7.00
2023-04-25T03:55:35.783Z,6.90
2023-04-25T03:56:35.815Z,6.70
2023-04-25T03:57:35.757Z,6.40
2023-04-25T03:58:35.745Z,6.70
2023-04-25T03:59:35.735Z,7.00
2023-04-25T04:00:35.716Z,7.90
2023-04-25T04:01:35.728Z,7.30
2023-04-25T04:02:35.908Z,8.80
2023-04-25T04:03:35.883Z,7.10
2023-04-25T04:04:35.773Z,6.10
2023-04-25T04:05:35.703Z,6.40
2023-04-25T04:06:35.632Z,6.20
2023-04-25T04:07:35.621Z,7.60
2023-04-25T04:08:35.605Z,6.80
2023-04-25T04:09:35.605Z,6.90
2023-04-25T04:10:35.615Z,7.30
2023-04-25T04:11:35.581Z,9.90
2023-04-25T04:12:35.579Z,6.70
2023-04-25T04:13:35.579Z,7.80
2023-04-25T04:14:35.551Z,8.90
2023-04-25T04:15:35.617Z,8.70
2023-04-25T04:16:35.561Z,8.50
2023-04-25T04:17:35.546Z,9.50
2023-04-25T04:18:35.467Z,18.70
2023-04-25T04:19:35.459Z,19.70
2023-04-25T04:20:35.459Z,25.90
2023-04-25T04:21:35.486Z,25.60
2023-04-25T04:22:35.418Z,12.50
2023-04-25T04:23:36.532Z,13.00
2023-04-25T04:24:35.398Z,7.70
2023-04-25T04:25:35.386Z,6.80
2023-04-25T04:26:35.390Z,5.70
2023-04-25T04:27:35.393Z,5.30
2023-04-25T04:28:35.378Z,6.60
2023-04-25T04:29:35.340Z,5.20
2023-04-25T04:30:35.317Z,5.20
2023-04-25T04:31:35.398Z,5.60
2023-04-25T04:32:35.309Z,5.90
2023-04-25T04:33:35.286Z,7.70
2023-04-25T04:34:35.284Z,11.60
2023-04-25T04:35:35.269Z,12.40
2023-04-25T04:36:35.257Z,11.20
2023-04-25T04:37:35.231Z,11.70
2023-04-25T04:38:35.216Z,10.90
2023-04-25T04:39:35.202Z,9.30
2023-04-25T04:40:35.191Z,9.10
2023-04-25T04:41:35.180Z,7.60
2023-04-25T04:42:35.190Z,9.40
2023-04-25T04:43:35.167Z,8.10
2023-04-25T04:44:35.134Z,7.10
2023-04-25T04:45:35.126Z,5.90
2023-04-25T04:46:35.173Z,5.90
2023-04-25T04:47:35.141Z,5.60
2023-04-25T04:48:35.164Z,5.80
2023-04-25T04:49:35.075Z,6.00
2023-04-25T04:50:35.062Z,6.60
2023-04-25T04:51:35.053Z,6.60
2023-04-25T04:52:35.061Z,7.40
2023-04-25T04:53:35.025Z,6.50
2023-04-25T04:54:35.035Z,6.20
2023-04-25T04:55:35.004Z,6.40
2023-04-25T04:56:34.992Z,6.40
2023-04-25T04:57:35.043Z,5.60
2023-04-25T04:58:34.952Z,5.30
2023-04-25T04:59:34.951Z,6.00
2023-04-25T05:00:34.965Z,6.40
2023-04-25T05:01:34.955Z,5.90
2023-04-25T05:02:35.025Z,6.10
2023-04-25T05:03:35.051Z,5.90
2023-04-25T05:04:35.076Z,5.70
2023-04-25T05:05:34.925Z,6.20
2023-04-25T05:06:34.901Z,6.00
2023-04-25T05:07:34.913Z,6.20
2023-04-25T05:08:34.817Z,6.00
2023-04-25T05:09:34.865Z,6.00
2023-04-25T05:10:34.802Z,6.80
2023-04-25T05:11:34.822Z,6.80
2023-04-25T05:12:36.999Z,6.30
2023-04-25T05:13:34.746Z,6.80
2023-04-25T05:14:34.739Z,6.50
2023-04-25T05:15:34.755Z,6.90
2023-04-25T05:16:34.775Z,7.80
2023-04-25T05:17:34.740Z,5.30
2023-04-25T05:18:34.702Z,7.00
2023-04-25T05:19:34.693Z,6.40
2023-04-25T05:20:34.676Z,4.90
2023-04-25T05:21:34.646Z,5.60
2023-04-25T05:22:34.663Z,6.60
2023-04-25T05:23:34.639Z,5.50
2023-04-25T05:24:34.652Z,5.80
2023-04-25T05:25:34.596Z,7.80
2023-04-25T05:26:34.623Z,5.40
2023-04-25T05:27:34.566Z,5.90
2023-04-25T05:28:34.568Z,7.70
2023-04-25T05:29:34.560Z,6.50
2023-04-25T05:30:34.550Z,7.10
2023-04-25T05:31:34.540Z,5.20
2023-04-25T05:32:34.556Z,6.00
2023-04-25T05:33:34.492Z,5.60
2023-04-25T05:34:34.506Z,6.20
2023-04-25T05:35:34.494Z,5.60
2023-04-25T05:36:34.455Z,5.60
2023-04-25T05:37:34.475Z,6.50
2023-04-25T05:38:35.159Z,6.40
2023-04-25T05:39:34.409Z,7.10
2023-04-25T05:40:34.392Z,6.60
2023-04-25T05:41:34.389Z,7.50
2023-04-25T05:42:34.455Z,5.70
2023-04-25T05:43:34.376Z,4.90
2023-04-25T05:44:34.334Z,5.50
2023-04-25T05:45:34.325Z,6.40
2023-04-25T05:46:34.400Z,6.10
2023-04-25T05:47:34.375Z,5.20
2023-04-25T05:48:34.336Z,5.90
2023-04-25T05:49:34.308Z,5.30
2023-04-25T05:50:34.270Z,4.90
2023-04-25T05:51:34.254Z,6.70
2023-04-25T05:52:34.244Z,5.20
2023-04-25T05:53:34.242Z,5.10
2023-04-25T05:54:34.269Z,5.30
2023-04-25T05:55:34.234Z,5.40
2023-04-25T05:56:34.180Z,5.00
2023-04-25T05:57:34.179Z,5.30
2023-04-25T05:58:34.187Z,5.30
2023-04-25T05:59:34.151Z,5.60
2023-04-25T06:00:34.113Z,6.20
2023-04-25T06:01:34.124Z,5.80
2023-04-25T06:02:34.183Z,5.90
2023-04-25T06:03:34.347Z,5.90
2023-04-25T06:04:34.524Z,5.50
2023-04-25T06:05:34.281Z,5.50
2023-04-25T06:06:34.040Z,5.20
2023-04-25T06:07:34.037Z,6.10
2023-04-25T06:08:34.067Z,7.60
2023-04-25T06:09:34.051Z,7.30
2023-04-25T06:10:34.011Z,5.40
2023-04-25T06:11:33.984Z,6.10
2023-04-25T06:12:33.975Z,6.50
2023-04-25T06:13:34.025Z,6.90
2023-04-25T06:14:33.942Z,7.30
2023-04-25T06:15:33.935Z,6.40
2023-04-25T06:16:33.961Z,6.50
2023-04-25T06:17:34.092Z,6.60
2023-04-25T06:18:33.890Z,6.00
2023-04-25T06:19:33.888Z,7.40
2023-04-25T06:20:33.876Z,6.10
2023-04-25T06:21:33.846Z,5.60
2023-04-25T06:22:33.836Z,4.90
2023-04-25T06:23:33.877Z,5.20
2023-04-25T06:24:33.880Z,5.50
2023-04-25T06:25:33.792Z,5.90
2023-04-25T06:26:33.784Z,5.80
2023-04-25T06:27:33.820Z,5.20
2023-04-25T06:28:33.792Z,5.30
2023-04-25T06:29:33.780Z,5.70
2023-04-25T06:30:33.726Z,9.10
2023-04-25T06:31:33.818Z,5.90
2023-04-25T06:32:33.789Z,5.40
2023-04-25T06:33:33.693Z,6.90
2023-04-25T06:34:33.700Z,5.50
2023-04-25T06:35:33.744Z,5.90
2023-04-25T06:36:33.675Z,5.10
2023-04-25T06:37:33.646Z,5.10
2023-04-25T06:38:33.623Z,5.40
2023-04-25T06:39:33.650Z,5.00
2023-04-25T06:40:33.596Z,4.70
2023-04-25T06:41:33.595Z,7.10
2023-04-25T06:42:33.578Z,7.50
2023-04-25T06:43:33.573Z,7.30
2023-04-25T06:44:33.570Z,5.30
2023-04-25T06:45:33.522Z,5.60
2023-04-25T06:46:33.544Z,5.30
2023-04-25T06:47:33.548Z,4.60
2023-04-25T06:48:33.500Z,4.60
2023-04-25T06:49:33.516Z,4.60
2023-04-25T06:50:33.481Z,5.00
2023-04-25T06:51:33.453Z,5.20
2023-04-25T06:52:33.471Z,4.90
2023-04-25T06:53:33.464Z,4.80
2023-04-25T06:54:33.452Z,5.40
2023-04-25T06:55:33.498Z,6.90
2023-04-25T06:56:33.458Z,5.00
2023-04-25T06:57:33.395Z,6.40
2023-04-25T06:58:33.371Z,5.80
2023-04-25T06:59:33.358Z,5.40
2023-04-25T07:00:33.384Z,4.40
2023-04-25T07:01:33.331Z,5.10
2023-04-25T07:02:33.483Z,5.40
2023-04-25T07:03:33.428Z,5.70
2023-04-25T07:04:33.395Z,4.70
2023-04-25T07:05:33.272Z,5.70
2023-04-25T07:06:33.256Z,5.50
2023-04-25T07:07:33.266Z,4.90
2023-04-25T07:08:33.229Z,4.70
2023-04-25T07:09:33.218Z,5.10
2023-04-25T07:10:33.242Z,4.50
2023-04-25T07:11:33.231Z,5.80
2023-04-25T07:12:33.216Z,4.80
2023-04-25T07:13:33.169Z,5.70
2023-04-25T07:14:33.153Z,4.90
2023-04-25T07:15:33.185Z,6.00
2023-04-25T07:16:33.185Z,4.70
2023-04-25T07:17:33.170Z,4.70
2023-04-25T07:18:33.125Z,5.70
2023-04-25T07:19:33.101Z,5.70
2023-04-25T07:20:33.116Z,6.30
2023-04-25T07:21:33.148Z,4.80
2023-04-25T07:22:33.055Z,5.00
2023-04-25T07:23:33.049Z,4.60
2023-04-25T07:24:33.065Z,4.80
2023-04-25T07:25:33.073Z,5.80
2023-04-25T07:26:33.029Z,4.90
2023-04-25T07:27:33.009Z,4.80
2023-04-25T07:28:32.990Z,4.80
2023-04-25T07:29:32.961Z,5.60
2023-04-25T07:30:32.978Z,4.50
2023-04-25T07:31:32.968Z,5.30
2023-04-25T07:32:32.955Z,5.70
2023-04-25T07:33:32.925Z,5.70
2023-04-25T07:34:32.901Z,5.00
2023-04-25T07:35:32.927Z,4.80
2023-04-25T07:36:32.858Z,4.20
2023-04-25T07:37:32.864Z,6.50
2023-04-25T07:38:32.837Z,4.40
2023-04-25T07:39:32.832Z,4.70
2023-04-25T07:40:32.869Z,5.50
2023-04-25T07:41:32.803Z,4.30
2023-04-25T07:42:32.838Z,4.50
2023-04-25T07:43:32.778Z,4.50
2023-04-25T07:44:32.776Z,5.20
2023-04-25T07:45:32.780Z,4.20
2023-04-25T07:46:32.780Z,5.00
2023-04-25T07:47:32.739Z,5.70
2023-04-25T07:48:32.707Z,4.30
2023-04-25T07:49:32.706Z,4.50
2023-04-25T07:50:32.679Z,4.70
2023-04-25T07:51:32.672Z,6.10
2023-04-25T07:52:32.702Z,5.70
2023-04-25T07:53:32.957Z,4.30
2023-04-25T07:54:32.630Z,4.50
2023-04-25T07:55:32.668Z,4.40
2023-04-25T07:56:45.240Z,4.70
2023-04-25T07:57:32.593Z,5.30
2023-04-25T07:58:32.583Z,4.30
2023-04-25T07:59:32.568Z,5.80
2023-04-25T08:00:32.580Z,5.50
2023-04-25T08:01:32.547Z,5.00
2023-04-25T08:02:32.639Z,4.50
2023-04-25T08:03:32.786Z,3.70
2023-04-25T08:04:32.653Z,6.10
2023-04-25T08:05:32.718Z,6.60
2023-04-25T08:06:32.664Z,6.00
2023-04-25T08:07:32.441Z,5.80
2023-04-25T08:08:32.444Z,4.50
2023-04-25T08:09:32.415Z,4.80
2023-04-25T08:10:32.420Z,5.10
2023-04-25T08:11:32.408Z,4.50
2023-04-25T08:12:32.396Z,4.00
2023-04-25T08:13:32.404Z,4.50
2023-04-25T08:14:32.360Z,4.00
2023-04-25T08:15:32.446Z,5.70
2023-04-25T08:16:32.463Z,4.00
2023-04-25T08:17:32.340Z,3.40
2023-04-25T08:18:32.336Z,3.50
2023-04-25T08:19:32.312Z,3.60
2023-04-25T08:20:32.291Z,3.90
2023-04-25T08:21:32.285Z,3.70
2023-04-25T08:22:32.258Z,3.70
2023-04-25T08:23:32.232Z,4.10
2023-04-25T08:24:32.259Z,3.90
2023-04-25T08:25:32.238Z,3.90
2023-04-25T08:26:32.189Z,3.30
2023-04-25T08:27:32.201Z,4.30
2023-04-25T08:28:32.171Z,3.70
2023-04-25T08:29:32.191Z,3.30
2023-04-25T08:30:32.155Z,3.00
2023-04-25T08:31:32.198Z,3.40
2023-04-25T08:32:32.166Z,3.30
2023-04-25T08:33:32.109Z,3.70
2023-04-25T08:34:32.086Z,4.70
2023-04-25T08:35:32.081Z,3.50
2023-04-25T08:36:39.170Z,4.00
2023-04-25T08:37:32.050Z,5.00
2023-04-25T08:38:32.041Z,3.70
2023-04-25T08:39:32.042Z,4.60
2023-04-25T08:40:32.040Z,3.20
2023-04-25T08:41:31.995Z,3.40
2023-04-25T08:42:32.003Z,3.20
2023-04-25T08:43:32.060Z,4.10
2023-04-25T08:44:31.958Z,4.60
2023-04-25T08:45:31.957Z,5.00
2023-04-25T08:46:31.971Z,4.50
2023-04-25T08:47:31.952Z,4.50
2023-04-25T08:48:31.900Z,5.70
2023-04-25T08:49:31.929Z,3.10
2023-04-25T08:50:31.898Z,3.90
2023-04-25T08:51:31.862Z,4.80
2023-04-25T08:52:31.844Z,3.70
2023-04-25T08:53:31.933Z,3.10
2023-04-25T08:54:35.581Z,4.50
2023-04-25T09:10:34.168Z,3.40
2023-04-25T09:10:39.477Z,4.40
2023-04-25T09:11:39.699Z,3.70
2023-04-25T09:12:39.465Z,4.30
2023-04-25T09:13:39.446Z,6.50
2023-04-25T09:14:39.463Z,5.80
2023-04-25T09:15:39.411Z,5.70
2023-04-25T09:16:39.716Z,5.60
2023-04-25T09:17:39.424Z,5.10
2023-04-25T09:18:39.384Z,4.00
2023-04-25T09:19:41.403Z,3.90
2023-04-25T09:20:51.011Z,3.80
2023-04-25T09:21:39.356Z,4.00
2023-04-25T09:22:39.362Z,3.50
2023-04-25T09:23:39.311Z,4.30
2023-04-25T09:24:39.334Z,4.40
2023-04-25T09:25:39.372Z,5.40
2023-04-25T09:26:39.276Z,3.50
2023-04-25T09:27:39.308Z,5.00
2023-04-25T09:28:39.245Z,5.10
2023-04-25T09:29:39.258Z,5.20
2023-04-25T09:30:39.245Z,3.90
2023-04-25T09:31:39.220Z,4.30
2023-04-25T09:32:39.244Z,4.30
2023-04-25T09:33:39.186Z,5.60
2023-04-25T09:34:39.173Z,4.20
2023-04-25T09:35:39.183Z,5.00
2023-04-25T09:36:39.188Z,4.30
2023-04-25T09:37:39.112Z,4.40
2023-04-25T09:38:39.135Z,3.90
2023-04-25T09:39:39.132Z,5.60
2023-04-25T09:40:39.126Z,4.10
2023-04-25T09:41:39.063Z,4.20
2023-04-25T09:42:39.062Z,5.90
2023-04-25T09:43:39.044Z,4.70
2023-04-25T09:44:39.034Z,5.10
2023-04-25T09:45:39.121Z,4.40
2023-04-25T09:46:39.130Z,4.70
2023-04-25T09:47:39.056Z,4.40
2023-04-25T09:48:39.007Z,6.80
2023-04-25T09:49:39.020Z,4.10
2023-04-25T09:50:38.959Z,6.70
2023-04-25T09:51:38.961Z,5.50
2023-04-25T09:52:38.978Z,4.20
2023-04-25T09:53:38.933Z,3.80
2023-04-25T09:54:38.979Z,4.90
2023-04-25T09:55:38.949Z,3.70
2023-04-25T09:56:38.894Z,4.00
2023-04-25T09:57:38.880Z,4.10
2023-04-25T09:58:38.879Z,4.00
2023-04-25T09:59:38.836Z,4.20
2023-04-25T10:00:38.827Z,3.50
2023-04-25T10:01:38.861Z,3.30
2023-04-25T10:02:38.890Z,3.40
2023-04-25T10:03:38.991Z,3.50
2023-04-25T10:04:38.886Z,3.50
2023-04-25T10:05:38.818Z,3.00
2023-04-25T10:06:38.774Z,4.00
2023-04-25T10:07:38.760Z,4.40
2023-04-25T10:08:38.708Z,3.80
2023-04-25T10:09:38.702Z,4.20
2023-04-25T10:10:38.680Z,4.40
2023-04-25T10:11:38.695Z,3.30
2023-04-25T10:12:38.712Z,2.80
2023-04-25T10:13:38.660Z,4.60
2023-04-25T10:14:38.631Z,4.60
2023-04-25T10:15:40.081Z,3.10
2023-04-25T10:16:38.660Z,2.50
2023-04-25T10:17:38.697Z,3.40
2023-04-25T10:18:38.619Z,3.70
2023-04-25T10:19:38.576Z,3.00
2023-04-25T10:20:38.571Z,4.10
2023-04-25T10:21:38.555Z,3.70
2023-04-25T10:22:38.534Z,3.60
2023-04-25T10:23:38.654Z,3.30
2023-04-25T10:24:38.549Z,3.10
2023-04-25T10:25:38.488Z,4.00
2023-04-25T10:26:38.485Z,3.80
2023-04-25T10:27:38.489Z,5.00
2023-04-25T10:28:38.443Z,3.60
2023-04-25T10:29:38.471Z,2.60
2023-04-25T10:30:38.463Z,3.10
2023-04-25T10:31:38.460Z,3.70
2023-04-25T10:32:38.469Z,3.70
2023-04-25T10:33:38.370Z,3.00
2023-04-25T10:34:38.371Z,4.20
2023-04-25T10:35:38.364Z,4.70
2023-04-25T10:36:38.361Z,3.10
2023-04-25T10:37:40.546Z,3.50
2023-04-25T10:38:38.308Z,3.90
2023-04-25T10:39:38.308Z,4.00
2023-04-25T10:40:38.278Z,3.90
2023-04-25T10:41:38.461Z,3.20
2023-04-25T10:42:38.280Z,3.50
2023-04-25T10:43:38.282Z,3.60
2023-04-25T10:44:38.242Z,6.80
2023-04-25T10:45:38.235Z,3.50
2023-04-25T10:46:38.241Z,3.00
2023-04-25T10:47:38.350Z,3.10
2023-04-25T10:48:38.185Z,5.30
2023-04-25T10:49:38.173Z,2.70
2023-04-25T10:50:38.148Z,3.60
2023-04-25T10:51:54.470Z,3.00
2023-04-25T10:52:38.166Z,2.70
2023-04-25T10:53:38.129Z,3.00
2023-04-25T10:54:38.128Z,3.00
2023-04-25T10:55:38.085Z,2.90
2023-04-25T10:56:38.066Z,3.70
2023-04-25T10:57:38.139Z,5.30
2023-04-25T10:58:38.058Z,3.00
2023-04-25T10:59:38.074Z,2.80
2023-04-25T11:00:53.254Z,3.90
2023-04-25T11:01:38.082Z,3.20
2023-04-25T11:02:38.146Z,3.20
2023-04-25T11:03:38.118Z,3.10
2023-04-25T11:04:38.281Z,3.50
2023-04-25T11:05:51.157Z,3.20
2023-04-25T11:14:42.877Z,2.80
2023-04-25T11:14:48.267Z,3.30
2023-04-25T11:15:51.842Z,2.50
2023-04-25T11:16:48.252Z,2.60
2023-04-25T11:17:48.331Z,2.50
2023-04-25T11:18:48.261Z,2.80
2023-04-25T11:19:48.162Z,3.20
2023-04-25T11:20:48.157Z,2.70
2023-04-25T11:21:48.150Z,2.70
2023-04-25T11:22:49.326Z,2.30
2023-04-25T11:23:48.341Z,2.90
2023-04-25T11:24:48.125Z,3.50
2023-04-25T11:25:48.113Z,2.40
2023-04-25T11:26:48.106Z,2.70
2023-04-25T11:27:48.084Z,3.00
2023-04-25T11:28:48.111Z,2.80
2023-04-25T11:29:48.033Z,2.60
2023-04-25T11:30:48.091Z,2.70
2023-04-25T11:31:48.069Z,2.90
2023-04-25T11:32:48.091Z,3.10
2023-04-25T11:33:48.258Z,3.40
2023-04-25T11:34:48.107Z,2.30
2023-04-25T11:35:47.958Z,3.00
2023-04-25T11:36:47.976Z,3.20
2023-04-25T11:37:48.054Z,1.90
2023-04-25T11:38:47.910Z,2.10
2023-04-25T11:39:47.934Z,2.90
2023-04-25T11:40:47.878Z,2.30
2023-04-25T11:41:47.880Z,2.90
2023-04-25T11:42:47.864Z,3.50
2023-04-25T11:43:47.886Z,2.40
2023-04-25T11:44:47.834Z,2.30
2023-04-25T11:45:47.835Z,3.50
2023-04-25T11:46:47.820Z,3.30
2023-04-25T11:47:47.822Z,2.20
2023-04-25T11:48:47.909Z,4.50
2023-04-25T11:49:47.782Z,2.90
2023-04-25T11:50:47.750Z,4.30
2023-04-25T11:51:47.756Z,3.00
2023-04-25T11:52:47.730Z,2.20
2023-04-25T11:53:47.737Z,4.50
2023-04-25T11:54:47.698Z,4.10
2023-04-25T11:55:47.714Z,3.20
2023-04-25T11:56:47.703Z,2.50
2023-04-25T11:57:47.662Z,3.70
2023-04-25T11:58:47.695Z,5.20
2023-04-25T11:59:47.673Z,3.10
2023-04-25T12:00:50.406Z,2.70
2023-04-25T12:01:47.604Z,3.50
2023-04-25T12:02:47.731Z,3.20
2023-04-25T12:03:47.972Z,2.40
2023-04-25T12:04:47.723Z,2.30
2023-04-25T12:05:47.947Z,3.70
2023-04-25T12:06:47.607Z,2.70
2023-04-25T12:07:47.517Z,2.30
2023-04-25T12:08:47.758Z,2.30
2023-04-25T12:09:47.526Z,3.30
2023-04-25T12:10:47.493Z,3.10
2023-04-25T12:11:47.488Z,2.90
2023-04-25T12:12:47.455Z,2.80
2023-04-25T12:13:47.435Z,3.00
2023-04-25T12:14:47.449Z,2.30
2023-04-25T12:15:47.524Z,3.10
2023-04-25T12:16:47.401Z,2.60
2023-04-25T12:17:47.456Z,3.50
2023-04-25T12:18:47.369Z,2.40
2023-04-25T12:19:47.386Z,2.80
2023-04-25T12:20:47.350Z,2.60
2023-04-25T12:21:57.389Z,2.30
2023-04-25T12:22:47.338Z,2.40
2023-04-25T12:23:47.290Z,3.70
2023-04-25T12:24:47.293Z,2.80
2023-04-25T12:25:47.337Z,2.60
2023-04-25T12:26:47.266Z,3.30
2023-04-25T12:27:47.250Z,2.00
2023-04-25T12:28:47.234Z,2.30
2023-04-25T12:30:47.240Z,3.00
2023-04-25T12:31:47.220Z,4.30
2023-04-25T12:32:47.260Z,2.70
2023-04-25T12:33:47.177Z,2.30
2023-04-25T12:34:47.182Z,3.90
2023-04-25T12:35:47.174Z,3.10
2023-04-25T12:36:47.140Z,2.30
2023-04-25T12:37:47.139Z,2.80
2023-04-25T12:38:47.105Z,2.30
2023-04-25T12:39:47.100Z,2.90
2023-04-25T12:40:47.085Z,3.80
2023-04-25T12:41:47.068Z,2.00
2023-04-25T12:42:47.083Z,3.60
2023-04-25T12:43:47.049Z,1.90
2023-04-25T12:44:47.013Z,2.60
2023-04-25T12:45:47.025Z,3.60
2023-04-25T12:46:47.024Z,2.80
2023-04-25T12:47:47.052Z,2.30
2023-04-25T12:48:46.997Z,4.40
2023-04-25T12:49:47.007Z,3.20
2023-04-25T12:50:46.940Z,3.50
2023-04-25T12:51:46.951Z,3.20
2023-04-25T12:52:46.924Z,3.00
2023-04-25T12:53:46.916Z,5.60
2023-04-25T12:54:46.891Z,2.60
2023-04-25T12:55:46.934Z,3.40
2023-04-25T12:56:46.867Z,3.10
2023-04-25T12:57:46.856Z,3.90
2023-04-25T12:58:46.866Z,3.40
2023-04-25T12:59:46.821Z,3.40
2023-04-25T13:00:46.878Z,3.90
2023-04-25T13:01:46.898Z,3.40
2023-04-25T13:02:46.946Z,3.90
2023-04-25T13:03:47.028Z,3.40
2023-04-25T13:04:46.759Z,3.90
2023-04-25T13:05:46.731Z,3.60
2023-04-25T13:06:46.747Z,3.70
2023-04-25T13:07:46.703Z,3.50
2023-04-25T13:08:46.726Z,3.30
2023-04-25T13:09:46.689Z,2.90
2023-04-25T13:10:46.667Z,3.20
2023-04-25T13:11:46.718Z,3.50
2023-04-25T13:12:46.655Z,3.20
2023-04-25T13:13:46.672Z,3.50
2023-04-25T13:14:46.628Z,3.30
2023-04-25T13:15:46.591Z,2.90
2023-04-25T13:16:46.634Z,3.10
2023-04-25T13:17:46.647Z,3.10
2023-04-25T13:18:46.569Z,3.20
2023-04-25T13:19:46.611Z,2.90
2023-04-25T13:20:46.520Z,3.10
2023-04-25T13:21:46.587Z,3.60
2023-04-25T13:22:46.541Z,3.10
2023-04-25T13:23:46.527Z,3.70
2023-04-25T13:24:46.511Z,3.20
2023-04-25T13:25:46.483Z,3.30
2023-04-25T13:26:46.454Z,3.30
2023-04-25T13:27:46.454Z,3.10
2023-04-25T13:28:46.514Z,3.20
2023-04-25T13:29:46.414Z,3.20
2023-04-25T13:30:46.414Z,3.50
2023-04-25T13:31:46.410Z,3.10
2023-04-25T13:32:46.441Z,3.40
2023-04-25T13:33:46.361Z,2.90
2023-04-25T13:34:46.342Z,3.50
2023-04-25T13:35:46.326Z,3.20
2023-04-25T13:36:46.329Z,3.10
2023-04-25T13:37:46.316Z,3.00
2023-04-25T13:38:46.303Z,2.60
2023-04-25T13:39:46.319Z,2.90
2023-04-25T13:40:46.271Z,3.20